Time;durP1;ratioP1;P1;durP2;ratioP2;P2;SDS_P1;SDS_P2;PMS_P1;PMS_P2;Temp;Humidity;BMP_temperature;BMP_pressure;BME280_temperature;BME280_humidity;BME280_pressure;Samples;Min_cycle;Max_cycle;Signal;HPM_P1;HPM_P2
2023/04/21 00:00:03;;;;;;;78.68;44.30;;;;;;;6.94;100.00;100157.53;4948213;28;20498;-89
2023/04/21 00:02:38;;;;;;;73.57;45.03;;;;;;;6.95;100.00;100156.63;4964366;28;20053;-90
2023/04/21 00:05:18;;;;;;;72.00;43.92;;;;;;;6.95;100.00;100156.63;4962687;29;20083;-91
2023/04/21 00:07:51;;;;;;;73.35;44.72;;;;;;;6.92;100.00;100143.59;4962599;28;20047;-92
2023/04/21 00:10:45;;;;;;;70.85;42.92;;;;;;;6.62;100.00;100098.16;4958017;29;20039;-91
2023/04/21 00:13:16;;;;;;;73.80;43.83;;;;;;;6.92;100.00;100147.09;4968180;28;20053;-92
2023/04/21 00:15:43;;;;;;;70.72;43.35;;;;;;;6.80;100.00;100133.50;4961723;29;20043;-91
2023/04/21 00:18:13;;;;;;;74.20;43.63;;;;;;;6.79;100.00;100137.88;4928167;28;20488;-90
2023/04/21 00:20:43;;;;;;;70.47;42.65;;;;;;;6.55;100.00;100107.19;4944098;29;20044;-90
2023/04/21 00:23:13;;;;;;;;;;;;;;;6.76;100.00;100145.91;4955830;28;20047;-91
2023/04/21 00:25:40;;;;;;;71.82;42.97;;;;;;;6.75;100.00;100145.97;4962890;29;20017;-90
2023/04/21 00:28:14;;;;;;;76.70;46.17;;;;;;;6.76;100.00;100150.31;4966123;28;20047;-91
2023/04/21 00:30:41;;;;;;;77.10;44.47;;;;;;;6.78;100.00;100136.16;4959791;28;20189;-90
2023/04/21 00:33:11;;;;;;;79.40;46.03;;;;;;;6.78;100.00;100133.53;4967273;28;20494;-90
2023/04/21 00:35:58;;;;;;;80.22;46.08;;;;;;;6.78;100.00;100119.53;4968482;28;20447;-90
2023/04/21 00:38:31;;;;;;;79.10;45.67;;;;;;;6.85;100.00;100123.66;4943951;29;20050;-90
2023/04/21 00:41:07;;;;;;;83.95;48.63;;;;;;;6.93;100.00;100132.13;4955454;29;20047;-89
2023/04/21 00:44:00;;;;;;;78.82;46.22;;;;;;;6.69;100.00;100090.00;4972643;28;20047;-89
2023/04/21 00:46:29;;;;;;;81.00;45.92;;;;;;;6.76;100.00;100113.47;4977590;28;20103;-90
2023/04/21 00:49:12;;;;;;;81.20;47.05;;;;;;;6.77;100.00;100128.34;4971901;28;20497;-90
2023/04/21 00:51:42;;;;;;;83.68;47.00;;;;;;;6.68;100.00;100121.63;4955302;29;20039;-91
2023/04/21 00:54:17;;;;;;;79.63;46.08;;;;;;;6.73;100.00;100124.09;4970314;28;20583;-90
2023/04/21 00:56:44;;;;;;;84.85;47.83;;;;;;;6.76;100.00;100124.88;4970758;28;20043;-89
2023/04/21 00:59:14;;;;;;;82.70;46.97;;;;;;;6.74;100.00;100134.59;4976130;28;20051;-89
2023/04/21 01:01:53;;;;;;;81.60;46.30;;;;;;;6.61;100.00;100107.00;4955371;29;20082;-90
2023/04/21 01:04:23;;;;;;;81.78;47.58;;;;;;;6.71;100.00;100123.31;4953880;29;20075;-90
2023/04/21 01:06:52;;;;;;;81.05;46.92;;;;;;;6.59;100.00;100103.56;4953388;29;20045;-89
2023/04/21 01:09:20;;;;;;;82.43;46.30;;;;;;;6.58;100.00;100097.44;4971537;28;20039;-90
2023/04/21 01:12:10;;;;;;;80.00;47.05;;;;;;;6.46;100.00;100084.69;4972669;28;20047;-89
2023/04/21 01:14:39;;;;;;;92.60;49.25;;;;;;;6.58;100.00;100110.59;4945787;28;20122;-89
2023/04/21 01:17:13;;;;;;;85.38;45.95;;;;;;;6.53;100.00;100114.28;4951987;28;20054;-90
2023/04/21 01:19:43;;;;;;;85.60;47.50;;;;;;;6.57;100.00;100113.28;4958321;29;20043;-89
2023/04/21 01:22:14;;;;;;;89.97;47.47;;;;;;;6.58;100.00;100113.22;4957295;28;20063;-89
2023/04/21 01:24:43;;;;;;;85.57;47.85;;;;;;;6.49;100.00;100094.25;4954304;28;20075;-89
2023/04/21 01:27:15;;;;;;;88.70;48.60;;;;;;;6.58;100.00;100112.34;4942792;28;20043;-90
2023/04/21 01:29:47;;;;;;;89.22;48.20;;;;;;;6.55;100.00;100121.22;4961271;29;20051;-89
2023/04/21 01:32:17;;;;;;;93.72;48.90;;;;;;;6.53;100.00;100115.13;4961772;28;20083;-89
2023/04/21 01:34:46;;;;;;;92.22;49.35;;;;;;;6.41;100.00;100089.28;4958868;29;20043;-89
2023/04/21 01:37:16;;;;;;;94.47;48.58;;;;;;;6.49;100.00;100112.66;4971123;28;20043;-90
2023/04/21 01:39:55;;;;;;;90.17;48.07;;;;;;;6.46;100.00;100104.88;4967809;28;20047;-90
2023/04/21 01:42:30;;;;;;;94.40;49.80;;;;;;;6.51;100.00;100114.34;4947142;29;20487;-89
2023/04/21 01:45:01;;;;;;;90.22;48.53;;;;;;;6.53;100.00;100115.13;4966290;28;20112;-89
2023/04/21 01:47:29;;;;;;;91.60;49.28;;;;;;;6.52;100.00;100113.41;4954081;28;20031;-91
2023/04/21 01:50:07;;;;;;;90.10;46.75;;;;;;;6.50;100.00;100115.25;4976304;28;20133;-89
2023/04/21 01:52:42;;;;;;;98.97;48.97;;;;;;;6.51;100.00;100116.09;4962396;28;20047;-88
2023/04/21 01:55:13;;;;;;;92.40;48.22;;;;;;;6.51;100.00;100106.44;4969013;28;20094;-90
2023/04/21 01:57:41;;;;;;;91.00;48.10;;;;;;;6.46;100.00;100108.34;4966260;29;20106;-90
2023/04/21 02:00:09;;;;;;;93.25;47.70;;;;;;;6.50;100.00;100111.75;4967173;28;20054;-91
2023/04/21 02:02:43;;;;;;;93.47;49.10;;;;;;;6.36;100.00;100090.34;4965327;28;20043;-89
2023/04/21 02:05:11;;;;;;;94.95;48.65;;;;;;;6.47;100.00;100111.84;4965168;28;20083;-90
2023/04/21 02:07:41;;;;;;;93.88;48.67;;;;;;;6.29;100.00;100081.81;4962311;29;20043;-89
2023/04/21 02:10:12;;;;;;;97.13;50.13;;;;;;;6.39;100.00;100101.59;4964888;28;20499;-89
2023/04/21 02:12:40;;;;;;;95.78;48.63;;;;;;;6.45;100.00;100129.47;4960050;29;20082;-89
2023/04/21 02:15:11;;;;;;;95.28;48.75;;;;;;;6.34;100.00;100099.13;4944827;28;20047;-89
2023/04/21 02:17:41;;;;;;;92.15;47.83;;;;;;;6.10;100.00;100062.31;4945306;29;20212;-90
2023/04/21 02:20:11;;;;;;;93.22;47.90;;;;;;;6.44;100.00;100112.84;4944273;28;20055;-90
2023/04/21 02:22:39;;;;;;;100.80;49.88;;;;;;;6.43;100.00;100116.38;4960802;28;20043;-90
2023/04/21 02:25:07;;;;;;;99.50;49.20;;;;;;;6.44;100.00;100118.09;4956567;29;20070;-89
2023/04/21 02:27:35;;;;;;;102.80;49.75;;;;;;;6.47;100.00;100125.00;4959004;28;20507;-89
2023/04/21 02:30:02;;;;;;;94.00;46.72;;;;;;;6.46;100.00;100118.03;4944831;29;20062;-89
2023/04/21 02:32:43;;;;;;;99.85;48.50;;;;;;;6.47;100.00;100125.84;4959424;28;20122;-89
2023/04/21 02:35:16;;;;;;;102.97;48.22;;;;;;;6.48;100.00;100122.31;4960630;29;20089;-90
2023/04/21 02:37:46;;;;;;;96.97;48.15;;;;;;;6.51;100.00;100122.22;4971968;28;20124;-90
2023/04/21 02:40:13;;;;;;;109.28;53.75;;;;;;;6.43;100.00;100111.13;4969845;28;20149;-90
2023/04/21 02:42:41;;;;;;;98.72;50.10;;;;;;;6.54;100.00;100123.91;4950369;29;20043;-90
2023/04/21 02:45:11;;;;;;;96.95;48.10;;;;;;;6.56;100.00;100128.19;4972553;28;20058;-89
2023/04/21 02:47:38;;;;;;;101.63;50.47;;;;;;;6.55;100.00;100120.34;4965771;29;20489;-89
2023/04/21 02:50:09;;;;;;;99.80;48.83;;;;;;;6.48;100.00;100119.69;4962232;29;20048;-89
2023/04/21 02:52:37;;;;;;;94.55;47.17;;;;;;;6.45;100.00;100119.81;4971416;29;20047;-88
2023/04/21 02:55:04;;;;;;;99.88;48.80;;;;;;;6.49;100.00;100124.03;4975407;28;20133;-90
2023/04/21 02:57:34;;;;;;;97.35;48.60;;;;;;;6.49;100.00;100124.03;4966958;28;20492;-89
2023/04/21 03:00:32;;;;;;;97.85;48.22;;;;;;;6.42;100.00;100100.66;5078018;27;20687;-91
2023/04/21 03:03:01;;;;;;;99.28;46.60;;;;;;;6.52;100.00;100123.09;5075695;28;20473;-92
2023/04/21 03:05:32;;;;;;;95.60;46.72;;;;;;;6.45;100.00;100111.06;5079523;28;20118;-90
2023/04/21 03:08:07;;;;;;;92.80;46.97;;;;;;;6.52;100.00;100121.31;5079848;28;20092;-91
2023/04/21 03:10:37;;;;;;;96.57;47.50;;;;;;;6.48;100.00;100117.06;5079946;28;20044;-89
2023/04/21 03:13:07;;;;;;;90.43;45.03;;;;;;;6.28;100.00;100093.25;5094285;28;20040;-90
2023/04/21 03:15:34;;;;;;;94.72;48.13;;;;;;;6.48;100.00;100131.97;5089198;28;20108;-90
2023/04/21 03:18:02;;;;;;;94.93;46.58;;;;;;;6.46;100.00;100132.03;5088888;28;20029;-90
2023/04/21 03:20:30;;;;;;;90.60;46.50;;;;;;;6.45;100.00;100124.22;5091293;28;20100;-91
2023/04/21 03:23:02;;;;;;;99.75;47.50;;;;;;;6.39;100.00;100122.66;5092983;28;20051;-87
2023/04/21 03:25:29;;;;;;;97.85;46.05;;;;;;;6.42;100.00;100121.69;5091942;28;20029;-89
2023/04/21 03:27:56;;;;;;;92.40;44.80;;;;;;;6.48;100.00;100126.72;5092529;28;20028;-90
2023/04/21 03:30:26;;;;;;;99.90;47.40;;;;;;;6.55;100.00;100137.00;5099313;28;20045;-90
2023/04/21 03:32:54;;;;;;;103.60;47.63;;;;;;;6.58;100.00;100144.78;5084933;28;20028;-89
2023/04/21 03:35:29;;;;;;;95.28;45.38;;;;;;;6.55;100.00;100128.25;5078225;28;20040;-90
2023/04/21 03:38:00;;;;;;;99.70;46.90;;;;;;;6.59;100.00;100135.13;5087524;28;20036;-90
2023/04/21 03:40:29;;;;;;;94.35;45.95;;;;;;;6.59;100.00;100138.63;5090526;28;20531;-90
2023/04/21 03:42:57;;;;;;;104.25;48.65;;;;;;;6.49;100.00;100118.78;5082302;28;20067;-90
2023/04/21 03:45:25;;;;;;;101.78;48.25;;;;;;;6.55;100.00;100131.72;5072355;28;20437;-91
2023/04/21 03:47:54;;;;;;;96.82;47.53;;;;;;;6.55;100.00;100131.72;5076712;28;20047;-90
2023/04/21 03:50:37;;;;;;;89.15;45.25;;;;;;;6.51;100.00;100127.47;5084000;28;20120;-89
2023/04/21 03:53:04;;;;;;;100.60;47.40;;;;;;;6.45;100.00;100130.34;5088359;28;20040;-90
2023/04/21 03:55:32;;;;;;;101.30;47.75;;;;;;;6.42;100.00;100119.06;5084300;28;20106;-91
2023/04/21 03:57:59;;;;;;;97.65;45.58;;;;;;;6.44;100.00;100122.50;5088456;28;20036;-90
2023/04/21 04:00:27;;;;;;;95.35;45.70;;;;;;;6.43;100.00;100126.03;5086101;28;20039;-89
2023/04/21 04:02:55;;;;;;;99.13;46.58;;;;;;;6.45;100.00;100116.34;5079370;28;20041;-91
2023/04/21 04:05:27;;;;;;;;;;;;;;;6.45;100.00;100109.31;5082802;28;20109;-89
2023/04/21 04:07:55;;;;;;;104.18;46.22;;;;;;;6.43;100.00;100121.66;5088044;28;19939;-92
2023/04/21 04:10:33;;;;;;;106.60;48.50;;;;;;;6.43;100.00;100126.03;5080402;28;20036;-90
2023/04/21 04:13:08;;;;;;;109.38;48.10;;;;;;;6.39;100.00;100122.66;5076256;28;20033;-89
2023/04/21 04:15:37;;;;;;;106.35;47.60;;;;;;;6.40;100.00;100121.75;5078041;28;20049;-89
2023/04/21 04:18:06;;;;;;;96.18;45.55;;;;;;;6.47;100.00;100128.50;5074934;28;20041;-89
2023/04/21 04:20:32;;;;;;;96.53;46.40;;;;;;;6.49;100.00;100131.94;5077769;28;20044;-89
2023/04/21 04:23:01;;;;;;;93.35;45.72;;;;;;;6.43;100.00;100120.78;5083210;28;20058;-89
2023/04/21 04:25:29;;;;;;;96.40;46.55;;;;;;;6.47;100.00;100125.00;5076628;28;20037;-88
2023/04/21 04:27:58;;;;;;;96.50;45.00;;;;;;;6.46;100.00;100128.53;5073693;28;20029;-90
2023/04/21 04:30:28;;;;;;;94.72;45.17;;;;;;;6.51;100.00;100121.34;5073782;28;20051;-90
2023/04/21 04:33:02;;;;;;;90.25;43.92;;;;;;;6.45;100.00;100109.31;5074376;28;20021;-89
2023/04/21 04:35:32;;;;;;;101.30;46.53;;;;;;;6.51;100.00;100124.84;5075317;28;20028;-89
2023/04/21 04:38:13;;;;;;;98.18;47.08;;;;;;;6.36;100.00;100100.84;5076614;28;20037;-91
2023/04/21 04:40:53;;;;;;;99.03;45.28;;;;;;;6.40;100.00;100098.06;5076046;28;20100;-88
2023/04/21 04:43:29;;;;;;;89.07;44.38;;;;;;;6.49;100.00;100107.41;5071852;28;20036;-89
2023/04/21 04:45:58;;;;;;;100.85;47.15;;;;;;;6.48;100.00;100113.56;5084909;28;20032;-88
2023/04/21 04:48:49;;;;;;;95.68;44.88;;;;;;;6.52;100.00;100118.69;5092088;28;20085;-90
2023/04/21 04:51:16;;;;;;;96.07;45.83;;;;;;;6.46;100.00;100103.09;5077965;28;20041;-90
2023/04/21 04:53:47;;;;;;;99.30;47.33;;;;;;;6.44;100.00;100099.69;5076445;28;20059;-89
2023/04/21 04:56:22;;;;;;;100.72;45.85;;;;;;;6.48;100.00;100105.69;5074416;28;20045;-89
2023/04/21 04:58:50;;;;;;;96.70;45.58;;;;;;;6.34;100.00;100087.75;5057370;28;20059;-88
2023/04/21 05:01:21;;;;;;;108.07;47.80;;;;;;;6.47;100.00;100103.97;5073554;28;20041;-89
2023/04/21 05:03:53;;;;;;;96.65;46.85;;;;;;;6.51;100.00;100111.69;5073646;28;20037;-88
2023/04/21 05:06:21;;;;;;;92.80;44.83;;;;;;;6.46;100.00;100108.34;5076814;28;20071;-90
2023/04/21 05:08:48;;;;;;;98.05;45.90;;;;;;;6.50;100.00;100120.50;5072251;28;20049;-87
2023/04/21 05:11:19;;;;;;;92.25;45.65;;;;;;;6.52;100.00;100123.94;5071996;28;20064;-88
2023/04/21 05:13:46;;;;;;;98.97;45.95;;;;;;;6.55;100.00;100117.72;5071512;28;20041;-89
2023/04/21 05:16:16;;;;;;;97.35;45.33;;;;;;;6.59;100.00;100114.94;5069087;28;20101;-89
2023/04/21 05:19:00;;;;;;;101.75;46.35;;;;;;;6.59;100.00;100122.84;5075924;28;20071;-89
2023/04/21 05:21:32;;;;;;;96.18;44.92;;;;;;;6.61;100.00;100122.78;5073734;28;20101;-89
2023/04/21 05:24:03;;;;;;;98.75;46.03;;;;;;;6.56;100.00;100114.19;5071333;28;20048;-89
2023/04/21 05:26:42;;;;;;;97.80;45.50;;;;;;;6.46;100.00;100089.09;5072347;28;20032;-87
2023/04/21 05:29:32;;;;;;;96.50;44.15;;;;;;;6.71;100.00;100116.28;5069840;28;20052;-89
2023/04/21 05:32:01;;;;;;;100.70;45.45;;;;;;;6.72;100.00;100107.47;5071189;28;20040;-89
2023/04/21 05:34:28;;;;;;;92.18;43.88;;;;;;;6.77;100.00;100104.69;5074194;28;20068;-90
2023/04/21 05:36:56;;;;;;;93.93;43.95;;;;;;;6.63;100.00;100073.56;5074566;28;20037;-88
2023/04/21 05:39:29;;;;;;;93.43;45.60;;;;;;;6.80;100.00;100121.19;5081446;28;20059;-89
2023/04/21 05:41:56;;;;;;;97.60;44.25;;;;;;;6.82;100.00;100124.63;5082336;28;20052;-90
2023/04/21 05:44:29;;;;;;;93.43;43.65;;;;;;;6.57;100.00;100069.41;5068734;28;20041;-88
2023/04/21 05:46:56;;;;;;;99.35;45.60;;;;;;;6.88;100.00;100121.78;5076179;28;20136;-87
2023/04/21 05:49:51;;;;;;;95.30;44.55;;;;;;;6.92;100.00;100114.66;5076306;28;20040;-87
2023/04/21 05:52:43;;;;;;;96.22;45.17;;;;;;;6.93;100.00;100119.81;5073077;28;20060;-86
2023/04/21 05:55:16;;;;;;;89.13;44.55;;;;;;;6.92;100.00;100107.59;5075868;28;20039;-88
2023/04/21 05:57:45;;;;;;;;;;;;;;;7.02;100.00;100126.53;5075719;28;20041;-89
2023/04/21 06:00:15;;;;;;;95.53;45.28;;;;;;;6.97;100.00;100103.00;5074058;28;19971;-88
2023/04/21 06:02:44;;;;;;;96.78;44.85;;;;;;;7.14;100.00;100122.59;5080371;28;20103;-88
2023/04/21 06:05:12;;;;;;;96.43;45.92;;;;;;;7.07;100.00;100106.19;5091153;28;20059;-88
2023/04/21 06:07:40;;;;;;;96.88;47.15;;;;;;;7.30;100.00;100129.88;5075142;28;20033;-87
2023/04/21 06:10:10;;;;;;;99.43;46.45;;;;;;;7.26;100.00;100101.91;5074359;28;20049;-86
2023/04/21 06:12:50;;;;;;;95.55;45.63;;;;;;;7.48;100.00;100122.19;5070138;28;20053;-86
2023/04/21 06:15:23;;;;;;;94.93;46.70;;;;;;;7.50;100.00;100115.94;5072450;28;20063;-87
2023/04/21 06:17:55;;;;;;;94.35;46.15;;;;;;;7.58;100.00;100119.13;5075684;28;20032;-87
2023/04/21 06:20:33;;;;;;;91.43;45.17;;;;;;;7.68;100.00;100119.63;5092202;28;20025;-87
2023/04/21 06:23:00;;;;;;;92.78;45.67;;;;;;;7.55;100.00;100087.66;5075563;28;20041;-89
2023/04/21 06:25:26;;;;;;;85.78;43.90;;;;;;;7.73;100.00;100115.03;5075816;28;20020;-89
2023/04/21 06:27:55;;;;;;;93.38;45.28;;;;;;;7.82;100.00;100114.66;5075778;28;20036;-87
2023/04/21 06:30:25;;;;;;;92.45;44.83;;;;;;;7.89;100.00;100102.09;5067907;28;20047;-86
2023/04/21 06:32:52;;;;;;;87.15;44.10;;;;;;;8.04;100.00;100112.84;5075403;28;20037;-88
2023/04/21 06:35:26;;;;;;;85.45;45.15;;;;;;;8.14;100.00;100116.00;5082796;28;20108;-86
2023/04/21 06:37:56;;;;;;;81.45;43.55;;;;;;;8.20;100.00;100125.41;5072698;28;20064;-88
2023/04/21 06:40:36;;;;;;;80.90;42.45;;;;;;;8.31;100.00;100123.22;5072300;28;20040;-86
2023/04/21 06:43:05;;;;;;;80.00;43.00;;;;;;;8.38;100.00;100122.03;5057152;28;20058;-85
2023/04/21 06:45:35;;;;;;;73.85;41.63;;;;;;;8.40;100.00;100123.69;5053892;28;20047;-88
2023/04/21 06:48:06;;;;;;;76.30;42.13;;;;;;;8.40;100.00;100128.13;5072448;28;20041;-89
2023/04/21 06:50:32;;;;;;;72.40;40.75;;;;;;;8.45;100.00;100128.78;5072881;28;20059;-89
2023/04/21 06:53:02;;;;;;;74.97;41.67;;;;;;;8.47;100.00;100124.31;5069238;28;20029;-87
2023/04/21 06:55:29;;;;;;;72.27;42.43;;;;;;;8.58;100.00;100123.84;5053541;28;20100;-86
2023/04/21 06:58:04;;;;;;;78.97;43.05;;;;;;;8.68;100.00;100102.25;5082116;28;20059;-87
2023/04/21 07:00:52;;;;;;;70.13;41.38;;;;;;;9.18;100.00;100122.91;5070979;28;20115;-89
2023/04/21 07:03:33;;;;;;;80.22;43.08;;;;;;;9.61;100.00;100112.97;5046541;28;20041;-86
2023/04/21 07:06:13;;;;;;;;;;;;;;;10.05;100.00;100119.66;5054745;28;20041;-87
2023/04/21 07:08:59;;;;;;;63.33;38.13;;;;;;;10.19;100.00;100121.63;5068405;28;19917;-88
2023/04/21 07:11:27;;;;;;;52.30;33.45;;;;;;;10.08;100.00;100119.47;5071566;28;20021;-86
2023/04/21 07:14:00;;;;;;;50.92;34.22;;;;;;;10.13;100.00;100125.41;5074862;28;20024;-88
2023/04/21 07:16:31;;;;;;;56.45;34.42;;;;;;;10.19;100.00;100122.50;5067070;28;20032;-87
2023/04/21 07:19:03;;;;;;;53.45;34.10;;;;;;;10.08;100.00;100108.88;5073439;28;20060;-88
2023/04/21 07:21:35;;;;;;;48.88;31.67;;;;;;;9.88;100.00;100098.44;5071694;28;20040;-87
2023/04/21 07:24:03;;;;;;;54.22;34.13;;;;;;;9.80;100.00;100105.88;5074226;28;20127;-88
2023/04/21 07:26:38;;;;;;;;;;;;;;;9.88;100.00;100111.66;5072333;28;20021;-88
2023/04/21 07:29:11;;;;;;;47.83;32.13;;;;;;;9.79;100.00;100114.75;5072574;28;19917;-88
2023/04/21 07:31:38;;;;;;;51.80;33.35;;;;;;;9.78;100.00;100124.47;5073680;28;20108;-88
2023/04/21 07:34:09;;;;;;;54.92;35.67;;;;;;;9.84;100.00;100120.69;5072942;28;20102;-87
2023/04/21 07:36:37;;;;;;;51.33;32.97;;;;;;;9.94;100.00;100127.22;5089947;28;20048;-87
2023/04/21 07:39:12;;;;;;;53.13;33.70;;;;;;;9.96;100.00;100124.50;5074758;28;20033;-87
2023/04/21 07:41:40;;;;;;;50.78;32.70;;;;;;;10.02;100.00;100122.44;5074844;28;20089;-87
2023/04/21 07:44:10;;;;;;;50.03;33.63;;;;;;;10.16;100.00;100124.41;5057813;28;20032;-87
2023/04/21 07:46:38;;;;;;;50.60;34.10;;;;;;;10.35;100.00;100130.53;5059060;28;20037;-87
2023/04/21 07:49:07;;;;;;;52.38;34.22;;;;;;;10.54;100.00;100128.66;5093410;28;20092;-86
2023/04/21 07:51:36;;;;;;;48.30;32.63;;;;;;;10.68;100.00;100127.97;5093500;28;20060;-86
2023/04/21 07:54:02;;;;;;;50.67;31.90;;;;;;;10.64;100.00;100125.53;5060253;28;20033;-89
2023/04/21 07:56:32;;;;;;;45.90;31.23;;;;;;;10.56;100.00;100115.31;5088139;28;20093;-87
2023/04/21 07:59:02;;;;;;;46.03;32.15;;;;;;;10.54;100.00;100120.72;5075761;28;20051;-88
2023/04/21 08:01:29;;;;;;;50.80;32.30;;;;;;;10.51;100.00;100115.56;5077282;28;20065;-88
2023/04/21 08:03:58;;;;;;;47.75;32.15;;;;;;;10.50;100.00;100121.81;5076524;28;20040;-90
2023/04/21 08:06:28;;;;;;;46.58;31.15;;;;;;;10.36;100.00;100107.56;5083130;28;20079;-90
2023/04/21 08:08:55;;;;;;;48.90;31.80;;;;;;;10.39;100.00;100108.25;5075779;28;20061;-91
2023/04/21 08:11:22;;;;;;;50.00;32.70;;;;;;;10.32;100.00;100083.03;5077117;28;20041;-91
2023/04/21 08:13:50;;;;;;;47.75;31.70;;;;;;;10.43;100.00;100090.41;5092872;28;20040;-91
2023/04/21 08:16:27;;;;;;;49.53;32.33;;;;;;;10.55;100.00;100100.38;5077540;28;20048;-89
2023/04/21 08:18:57;;;;;;;50.97;33.15;;;;;;;10.62;100.00;100103.56;5072082;28;20041;-92
2023/04/21 08:21:34;;;;;;;49.85;32.85;;;;;;;10.60;100.00;100097.50;5060014;28;20072;-90
2023/04/21 08:24:15;;;;;;;48.60;32.83;;;;;;;10.64;100.00;100107.00;5067662;28;20063;-90
2023/04/21 08:26:46;;;;;;;45.20;30.90;;;;;;;10.52;100.00;100085.53;5069819;28;20056;-91
2023/04/21 08:29:14;;;;;;;48.00;31.88;;;;;;;10.60;100.00;100087.75;5067372;28;20048;-91
2023/04/21 08:31:41;;;;;;;47.88;31.80;;;;;;;10.76;100.00;100122.25;5068597;28;20040;-92
2023/04/21 08:34:10;;;;;;;46.97;31.75;;;;;;;10.73;100.00;100111.81;5071848;28;20072;-89
2023/04/21 08:36:38;;;;;;;52.15;32.10;;;;;;;10.75;100.00;100104.63;5074082;28;20089;-89
2023/04/21 08:39:06;;;;;;;49.55;33.42;;;;;;;10.85;100.00;100114.69;5077034;28;20108;-89
2023/04/21 08:41:40;;;;;;;47.83;31.02;;;;;;;10.99;100.00;100113.97;5076870;28;20056;-90
2023/04/21 08:44:19;;;;;;;45.63;31.15;;;;;;;11.04;100.00;100095.16;5071785;28;20061;-91
2023/04/21 08:47:02;;;;;;;49.08;31.58;;;;;;;11.28;100.00;100091.19;5049506;28;20076;-88
2023/04/21 08:49:33;;;;;;;45.97;31.15;;;;;;;11.55;100.00;100102.91;5064892;28;20069;-90
2023/04/21 08:52:15;;;;;;;48.78;32.30;;;;;;;11.54;100.00;100093.25;5061719;28;20095;-90
2023/04/21 08:54:50;;;;;;;45.67;30.42;;;;;;;11.18;100.00;100034.31;5047195;28;20105;-90
2023/04/21 08:57:21;;;;;;;48.70;31.83;;;;;;;11.46;100.00;100095.50;5054397;28;20045;-92
2023/04/21 08:59:48;;;;;;;;;;;;;;;11.58;100.00;100101.91;5063333;28;20132;-90
2023/04/21 09:02:17;;;;;;;45.10;30.88;;;;;;;11.46;100.00;100058.38;5063666;28;19917;-90
2023/04/21 09:04:50;;;;;;;42.33;29.02;;;;;;;11.68;100.00;100087.16;5067497;28;20057;-90
2023/04/21 09:07:36;;;;;;;46.15;31.27;;;;;;;11.87;100.00;100094.97;5075661;28;20136;-88
2023/04/21 09:10:22;;;;;;;43.67;30.02;;;;;;;11.88;100.00;100100.19;5066783;28;20041;-89
2023/04/21 09:12:51;;;;;;;40.95;28.30;;;;;;;11.99;100.00;100102.22;5067343;28;20112;-88
2023/04/21 09:15:26;;;;;;;42.33;29.50;;;;;;;12.02;100.00;100104.72;5052732;28;20079;-89
2023/04/21 09:17:56;;;;;;;44.15;30.88;;;;;;;11.99;100.00;100091.63;5067272;28;20112;-89
2023/04/21 09:20:23;;;;;;;42.22;29.25;;;;;;;11.96;100.00;100091.81;5069251;28;20033;-89
2023/04/21 09:22:54;;;;;;;42.70;28.88;;;;;;;11.85;100.00;100065.03;5069682;28;20045;-89
2023/04/21 09:25:38;;;;;;;43.17;29.83;;;;;;;12.05;100.00;100103.69;5061171;28;20075;-91
2023/04/21 09:28:13;;;;;;;44.65;30.73;;;;;;;11.91;100.00;100107.13;5063344;28;20048;-90
2023/04/21 09:30:41;;;;;;;38.92;27.98;;;;;;;11.75;100.00;100100.94;5061239;28;20047;-91
2023/04/21 09:33:16;;;;;;;40.63;30.40;;;;;;;11.64;100.00;100096.25;5058672;28;20136;-89
2023/04/21 09:36:00;;;;;;;41.35;28.95;;;;;;;11.69;100.00;100096.84;5073539;28;20043;-91
2023/04/21 09:38:28;;;;;;;;;;;;;;;11.82;100.00;100110.28;5070976;28;20048;-90
2023/04/21 09:40:57;;;;;;;41.30;29.40;;;;;;;11.87;100.00;100110.91;5061280;28;19921;-89
2023/04/21 09:43:27;;;;;;;42.95;29.42;;;;;;;11.91;100.00;100107.13;5052552;28;20063;-91
2023/04/21 09:45:55;;;;;;;43.05;29.98;;;;;;;11.68;100.00;100065.09;5075833;28;20055;-88
2023/04/21 09:48:24;;;;;;;39.42;27.92;;;;;;;11.80;100.00;100064.44;5062366;28;20672;-89
2023/04/21 09:50:54;;;;;;;38.13;27.77;;;;;;;11.60;100.00;100028.41;5057874;28;20037;-88
2023/04/21 09:53:39;;;;;;;41.35;28.73;;;;;;;11.86;100.00;100083.50;5046499;28;20048;-90
2023/04/21 09:56:15;;;;;;;37.97;27.58;;;;;;;12.02;100.00;100106.50;5058505;28;20045;-89
2023/04/21 09:58:48;;;;;;;40.22;27.50;;;;;;;12.01;100.00;100110.97;5057369;28;20104;-88
2023/04/21 10:01:25;;;;;;;37.70;26.13;;;;;;;12.05;100.00;100103.69;5045418;28;20077;-90
2023/04/21 10:03:57;;;;;;;37.55;27.38;;;;;;;12.22;100.00;100099.13;5059817;28;20449;-91
2023/04/21 10:06:24;;;;;;;39.20;26.98;;;;;;;12.27;100.00;100107.69;5067019;28;20055;-91
2023/04/21 10:08:57;;;;;;;40.17;27.42;;;;;;;12.54;100.00;100107.84;5062273;28;20041;-89
2023/04/21 10:11:35;;;;;;;38.65;26.55;;;;;;;12.91;100.00;100095.81;5054521;28;20033;-90
2023/04/21 10:14:04;;;;;;;40.53;26.92;;;;;;;13.15;100.00;100095.31;5063010;28;20134;-90
2023/04/21 10:16:38;;;;;;;37.22;26.23;;;;;;;13.14;100.00;100057.19;5064616;28;20037;-90
2023/04/21 10:19:24;;;;;;;34.90;25.58;;;;;;;13.59;100.00;100084.50;5064359;28;20041;-90
2023/04/21 10:21:56;;;;;;;39.92;26.58;;;;;;;13.92;100.00;100079.66;5066659;28;20041;-89
2023/04/21 10:24:41;;;;;;;34.95;24.05;;;;;;;13.62;100.00;100023.97;5066874;28;20072;-89
2023/04/21 10:27:10;;;;;;;32.08;23.27;;;;;;;13.78;100.00;100077.06;5049083;28;20047;-88
2023/04/21 10:29:46;;;;;;;35.33;25.20;;;;;;;13.43;100.00;100063.34;5063235;28;20060;-89
2023/04/21 10:32:44;;;;;;;31.90;23.50;;;;;;;13.49;100.00;100070.97;5069131;28;20056;-88
2023/04/21 10:35:21;;;;;;;33.83;24.00;;;;;;;13.04;100.00;99967.50;5070892;28;20036;-87
2023/04/21 10:37:50;;;;;;;31.52;23.65;;;;;;;13.42;100.00;100035.06;5060377;28;20048;-90
2023/04/21 10:40:29;;;;;;;31.73;22.98;;;;;;;13.63;100.00;100068.25;5044992;28;20044;-91
2023/04/21 10:43:42;;;;;;;30.25;23.05;;;;;;;13.68;100.00;100060.84;5059510;28;20045;-91
2023/04/21 10:46:35;;;;;;;32.88;23.15;;;;;;;13.67;100.00;100061.78;5049720;28;20037;-90
2023/04/21 10:49:21;;;;;;;31.98;23.83;;;;;;;13.58;100.00;100061.50;5066014;28;20120;-90
2023/04/21 10:52:02;;;;;;;34.20;24.63;;;;;;;13.27;100.00;100055.50;5059093;28;20424;-90
2023/04/21 10:54:40;;;;;;;32.58;22.25;;;;;;;13.32;100.00;100063.19;5069495;28;20045;-91
2023/04/21 10:57:10;;;;;;;31.25;22.27;;;;;;;13.10;100.00;100007.81;5059175;28;20123;-91
2023/04/21 10:59:41;;;;;;;31.95;23.42;;;;;;;13.32;100.00;100050.75;5043169;28;20041;-91
2023/04/21 11:02:13;;;;;;;32.40;22.08;;;;;;;13.36;100.00;100048.75;5055902;28;20061;-89
2023/04/21 11:04:46;;;;;;;30.63;22.55;;;;;;;13.58;100.00;100059.72;5058979;28;20041;-88
2023/04/21 11:07:26;;;;;;;28.27;19.52;;;;;;;13.43;100.00;100015.47;5061553;28;20071;-90
2023/04/21 11:09:59;;;;;;;27.42;20.73;;;;;;;13.55;100.00;100020.00;5065976;28;20051;-92
2023/04/21 11:12:41;;;;;;;25.67;19.90;;;;;;;13.59;100.00;100005.56;5058355;28;20072;-91
2023/04/21 11:15:13;;;;;;;28.33;20.80;;;;;;;13.90;100.00;100022.16;5063635;28;20040;-91
2023/04/21 11:17:45;;;;;;;28.73;21.15;;;;;;;14.26;100.00;100046.31;5046083;28;20049;-93
2023/04/21 11:20:14;;;;;;;28.42;20.80;;;;;;;13.84;100.00;99953.38;5063123;28;20045;-90
2023/04/21 11:22:42;;;;;;;25.75;19.38;;;;;;;14.18;100.00;99971.41;5070691;28;20048;-90
2023/04/21 11:25:19;;;;;;;;;;;;;;;14.70;100.00;100039.78;5071814;28;20120;-92
2023/04/21 11:27:56;;;;;;;26.02;20.08;;;;;;;14.57;100.00;99999.81;5071049;28;19916;-89
2023/04/21 11:30:35;;;;;;;26.23;20.33;;;;;;;14.60;100.00;100009.41;5046913;28;20044;-90
2023/04/21 11:33:10;;;;;;;28.67;19.73;;;;;;;14.62;100.00;99979.03;5070104;28;20045;-90